sensor_id;sensor_type;location;lat;lon;timestamp;pressure;altitude;pressure_sealevel;temperature;humidity
24336;BME280;33098;52.400;16.880;2023-02-16T00:00:46;101588.21;;;1.79;82.98
24336;BME280;33098;52.400;16.880;2023-02-16T00:03:34;101592.38;;;1.72;82.81
24336;BME280;33098;52.400;16.880;2023-02-16T00:06:01;101593.30;;;1.70;83.03
24336;BME280;33098;52.400;16.880;2023-02-16T00:08:31;101592.20;;;1.73;83.08
24336;BME280;33098;52.400;16.880;2023-02-16T00:10:58;101590.84;;;1.71;82.94
24336;BME280;33098;52.400;16.880;2023-02-16T00:13:43;101590.00;;;1.69;83.17
24336;BME280;33098;52.400;16.880;2023-02-16T00:16:22;101591.81;;;1.74;83.40
24336;BME280;33098;52.400;16.880;2023-02-16T00:18:50;101591.48;;;1.73;83.35
24336;BME280;33098;52.400;16.880;2023-02-16T00:21:26;101586.77;;;1.80;83.53
24336;BME280;33098;52.400;16.880;2023-02-16T00:23:55;101585.63;;;1.84;83.46
24336;BME280;33098;52.400;16.880;2023-02-16T00:26:33;101587.59;;;1.82;83.48
24336;BME280;33098;52.400;16.880;2023-02-16T00:29:00;101587.66;;;1.87;83.41
24336;BME280;33098;52.400;16.880;2023-02-16T00:31:29;101585.46;;;1.91;83.71
24336;BME280;33098;52.400;16.880;2023-02-16T00:36:46;101579.02;;;2.25;83.94
24336;BME280;33098;52.400;16.880;2023-02-16T00:39:13;101569.18;;;2.19;83.52
24336;BME280;33098;52.400;16.880;2023-02-16T00:41:40;101561.91;;;2.08;83.25
24336;BME280;33098;52.400;16.880;2023-02-16T00:44:50;101558.23;;;2.09;83.38
24336;BME280;33098;52.400;16.880;2023-02-16T00:47:31;101558.44;;;2.21;83.45
24336;BME280;33098;52.400;16.880;2023-02-16T00:50:00;101564.49;;;2.18;83.31
24336;BME280;33098;52.400;16.880;2023-02-16T00:52:33;101566.64;;;2.16;83.25
24336;BME280;33098;52.400;16.880;2023-02-16T00:55:12;101562.56;;;2.11;83.21
24336;BME280;33098;52.400;16.880;2023-02-16T00:57:49;101563.70;;;2.15;83.23
24336;BME280;33098;52.400;16.880;2023-02-16T01:00:26;101562.08;;;2.09;83.01
24336;BME280;33098;52.400;16.880;2023-02-16T01:02:59;101555.95;;;2.02;82.93
24336;BME280;33098;52.400;16.880;2023-02-16T01:05:28;101556.44;;;2.04;83.29
24336;BME280;33098;52.400;16.880;2023-02-16T01:07:59;101554.13;;;1.98;82.98
24336;BME280;33098;52.400;16.880;2023-02-16T01:10:44;101546.52;;;1.94;83.27
24336;BME280;33098;52.400;16.880;2023-02-16T01:13:19;101547.20;;;2.02;83.41
24336;BME280;33098;52.400;16.880;2023-02-16T01:15:49;101547.67;;;2.04;83.61
24336;BME280;33098;52.400;16.880;2023-02-16T01:18:17;101538.63;;;2.08;83.46
24336;BME280;33098;52.400;16.880;2023-02-16T01:20:48;101536.55;;;2.07;83.39
24336;BME280;33098;52.400;16.880;2023-02-16T01:23:15;101542.00;;;2.13;83.39
24336;BME280;33098;52.400;16.880;2023-02-16T01:25:42;101539.91;;;2.07;83.13
24336;BME280;33098;52.400;16.880;2023-02-16T01:28:18;101530.88;;;2.04;83.23
24336;BME280;33098;52.400;16.880;2023-02-16T01:30:51;101532.49;;;2.08;83.45
24336;BME280;33098;52.400;16.880;2023-02-16T01:33:22;101526.54;;;2.16;83.38
24336;BME280;33098;52.400;16.880;2023-02-16T01:35:50;101528.76;;;2.18;83.44
24336;BME280;33098;52.400;16.880;2023-02-16T01:38:22;101521.41;;;2.17;83.09
24336;BME280;33098;52.400;16.880;2023-02-16T01:41:21;101518.99;;;2.09;82.97
24336;BME280;33098;52.400;16.880;2023-02-16T01:43:59;101519.32;;;2.10;83.10
24336;BME280;33098;52.400;16.880;2023-02-16T01:49:15;101510.86;;;2.19;83.09
24336;BME280;33098;52.400;16.880;2023-02-16T01:51:55;101512.56;;;2.21;83.19
24336;BME280;33098;52.400;16.880;2023-02-16T01:54:39;101510.34;;;2.11;82.80
24336;BME280;33098;52.400;16.880;2023-02-16T01:57:41;101510.02;;;2.04;82.67
24336;BME280;33098;52.400;16.880;2023-02-16T02:02:52;101500.50;;;2.07;82.94
24336;BME280;33098;52.400;16.880;2023-02-16T02:05:31;101497.31;;;2.08;82.90
24336;BME280;33098;52.400;16.880;2023-02-16T02:08:20;101498.95;;;1.99;82.67
24336;BME280;33098;52.400;16.880;2023-02-16T02:11:11;101495.42;;;2.00;83.08
24336;BME280;33098;52.400;16.880;2023-02-16T02:13:55;101484.71;;;2.08;82.91
24336;BME280;33098;52.400;16.880;2023-02-16T02:16:27;101479.21;;;2.17;83.28
24336;BME280;33098;52.400;16.880;2023-02-16T02:18:54;101478.34;;;2.24;83.06
24336;BME280;33098;52.400;16.880;2023-02-16T02:27:46;101480.25;;;2.04;82.42
24336;BME280;33098;52.400;16.880;2023-02-16T02:30:22;101485.09;;;1.93;82.30
24336;BME280;33098;52.400;16.880;2023-02-16T02:33:14;101490.91;;;1.91;82.63
24336;BME280;33098;52.400;16.880;2023-02-16T02:35:57;101492.88;;;1.97;82.89
24336;BME280;33098;52.400;16.880;2023-02-16T02:44:52;101482.14;;;1.78;82.76
24336;BME280;33098;52.400;16.880;2023-02-16T02:47:56;101482.91;;;1.75;82.72
24336;BME280;33098;52.400;16.880;2023-02-16T02:53:39;101481.47;;;1.85;82.94
24336;BME280;33098;52.400;16.880;2023-02-16T02:56:08;101484.11;;;1.84;82.85
24336;BME280;33098;52.400;16.880;2023-02-16T02:59:00;101484.77;;;1.78;82.67
24336;BME280;33098;52.400;16.880;2023-02-16T03:01:55;101482.13;;;1.72;82.86
24336;BME280;33098;52.400;16.880;2023-02-16T03:04:28;101482.31;;;1.72;82.83
24336;BME280;33098;52.400;16.880;2023-02-16T03:07:00;101478.63;;;1.72;82.86
24336;BME280;33098;52.400;16.880;2023-02-16T03:09:28;101473.40;;;1.71;82.89
24336;BME280;33098;52.400;16.880;2023-02-16T03:11:57;101478.41;;;1.67;82.80
24336;BME280;33098;52.400;16.880;2023-02-16T03:14:52;101478.20;;;1.68;82.90
24336;BME280;33098;52.400;16.880;2023-02-16T03:17:33;101478.04;;;1.68;83.03
24336;BME280;33098;52.400;16.880;2023-02-16T03:20:23;101481.30;;;1.63;82.87
24336;BME280;33098;52.400;16.880;2023-02-16T03:23:13;101478.43;;;1.59;82.89
24336;BME280;33098;52.400;16.880;2023-02-16T03:25:59;101476.05;;;1.56;83.03
24336;BME280;33098;52.400;16.880;2023-02-16T03:28:46;101480.52;;;1.59;83.13
24336;BME280;33098;52.400;16.880;2023-02-16T03:31:37;101484.48;;;1.61;83.13
24336;BME280;33098;52.400;16.880;2023-02-16T03:34:06;101488.41;;;1.72;83.38
24336;BME280;33098;52.400;16.880;2023-02-16T03:36:36;101489.09;;;1.66;82.99
24336;BME280;33098;52.400;16.880;2023-02-16T03:39:03;101495.58;;;1.58;82.82
24336;BME280;33098;52.400;16.880;2023-02-16T03:41:41;101490.77;;;1.48;82.69
24336;BME280;33098;52.400;16.880;2023-02-16T03:44:09;101484.27;;;1.49;83.03
24336;BME280;33098;52.400;16.880;2023-02-16T03:46:42;101489.08;;;1.45;83.07
24336;BME280;33098;52.400;16.880;2023-02-16T03:49:09;101482.52;;;1.41;82.99
24336;BME280;33098;52.400;16.880;2023-02-16T03:51:36;101483.36;;;1.35;82.93
24336;BME280;33098;52.400;16.880;2023-02-16T03:54:03;101483.14;;;1.30;82.95
24336;BME280;33098;52.400;16.880;2023-02-16T03:56:33;101481.01;;;1.31;83.25
24336;BME280;33098;52.400;16.880;2023-02-16T03:59:00;101481.31;;;1.33;83.29
24336;BME280;33098;52.400;16.880;2023-02-16T04:01:29;101476.52;;;1.36;83.45
24336;BME280;33098;52.400;16.880;2023-02-16T04:03:58;101477.99;;;1.33;83.32
24336;BME280;33098;52.400;16.880;2023-02-16T04:06:25;101479.06;;;1.25;83.40
24336;BME280;33098;52.400;16.880;2023-02-16T04:08:55;101480.17;;;1.30;83.92
24336;BME280;33098;52.400;16.880;2023-02-16T04:11:24;101473.60;;;1.41;84.05
24336;BME280;33098;52.400;16.880;2023-02-16T04:14:09;101470.65;;;1.40;83.76
24336;BME280;33098;52.400;16.880;2023-02-16T04:16:39;101468.52;;;1.41;83.85
24336;BME280;33098;52.400;16.880;2023-02-16T04:19:09;101468.85;;;1.42;83.80
24336;BME280;33098;52.400;16.880;2023-02-16T04:21:39;101463.90;;;1.44;84.08
24336;BME280;33098;52.400;16.880;2023-02-16T04:24:06;101461.79;;;1.45;83.72
24336;BME280;33098;52.400;16.880;2023-02-16T04:26:33;101461.58;;;1.46;83.66
24336;BME280;33098;52.400;16.880;2023-02-16T04:29:02;101466.53;;;1.44;83.78
24336;BME280;33098;52.400;16.880;2023-02-16T04:31:32;101460.91;;;1.45;83.63
24336;BME280;33098;52.400;16.880;2023-02-16T04:34:03;101453.53;;;1.39;83.62
24336;BME280;33098;52.400;16.880;2023-02-16T04:36:31;101457.27;;;1.36;83.54
24336;BME280;33098;52.400;16.880;2023-02-16T04:39:04;101453.02;;;1.38;83.73
24336;BME280;33098;52.400;16.880;2023-02-16T04:41:31;101449.23;;;1.43;83.88
24336;BME280;33098;52.400;16.880;2023-02-16T04:43:58;101451.56;;;1.41;83.53
24336;BME280;33098;52.400;16.880;2023-02-16T04:46:28;101451.77;;;1.40;83.69
24336;BME280;33098;52.400;16.880;2023-02-16T04:49:00;101455.96;;;1.40;83.76
24336;BME280;33098;52.400;16.880;2023-02-16T04:51:31;101452.66;;;1.39;83.62
24336;BME280;33098;52.400;16.880;2023-02-16T04:54:02;101448.18;;;1.44;83.78
24336;BME280;33098;52.400;16.880;2023-02-16T04:56:29;101443.18;;;1.55;84.08
24336;BME280;33098;52.400;16.880;2023-02-16T04:58:58;101443.80;;;1.65;84.16
24336;BME280;33098;52.400;16.880;2023-02-16T05:01:26;101447.44;;;1.67;84.00
24336;BME280;33098;52.400;16.880;2023-02-16T05:03:54;101439.39;;;1.67;83.72
24336;BME280;33098;52.400;16.880;2023-02-16T05:06:23;101432.59;;;1.58;83.38
24336;BME280;33098;52.400;16.880;2023-02-16T05:08:53;101437.03;;;1.42;83.11
24336;BME280;33098;52.400;16.880;2023-02-16T05:11:20;101445.60;;;1.35;83.17
24336;BME280;33098;52.400;16.880;2023-02-16T05:14:06;101447.69;;;1.42;83.48
24336;BME280;33098;52.400;16.880;2023-02-16T05:16:58;101446.77;;;1.37;83.50
24336;BME280;33098;52.400;16.880;2023-02-16T05:19:25;101448.75;;;1.41;83.66
24336;BME280;33098;52.400;16.880;2023-02-16T05:21:55;101451.56;;;1.41;83.58
24336;BME280;33098;52.400;16.880;2023-02-16T05:24:22;101451.39;;;1.34;83.40
24336;BME280;33098;52.400;16.880;2023-02-16T05:26:49;101448.71;;;1.29;83.53
24336;BME280;33098;52.400;16.880;2023-02-16T05:29:19;101453.52;;;1.33;83.70
24336;BME280;33098;52.400;16.880;2023-02-16T05:31:46;101457.05;;;1.31;83.63
24336;BME280;33098;52.400;16.880;2023-02-16T05:34:13;101450.73;;;1.32;83.95
24336;BME280;33098;52.400;16.880;2023-02-16T05:36:43;101449.83;;;1.33;83.79
24336;BME280;33098;52.400;16.880;2023-02-16T05:39:10;101452.66;;;1.32;83.86
24336;BME280;33098;52.400;16.880;2023-02-16T05:41:40;101451.05;;;1.34;83.90
24336;BME280;33098;52.400;16.880;2023-02-16T05:44:07;101457.67;;;1.27;83.64
24336;BME280;33098;52.400;16.880;2023-02-16T05:46:38;101456.29;;;1.19;83.76
24336;BME280;33098;52.400;16.880;2023-02-16T05:49:06;101454.20;;;1.10;83.71
24336;BME280;33098;52.400;16.880;2023-02-16T05:51:35;101457.05;;;1.17;84.01
24336;BME280;33098;52.400;16.880;2023-02-16T05:54:05;101457.39;;;1.24;84.28
24336;BME280;33098;52.400;16.880;2023-02-16T05:56:35;101459.33;;;1.31;84.27
24336;BME280;33098;52.400;16.880;2023-02-16T05:59:02;101459.95;;;1.27;84.19
24336;BME280;33098;52.400;16.880;2023-02-16T06:01:29;101461.77;;;1.24;84.25
24336;BME280;33098;52.400;16.880;2023-02-16T06:03:56;101457.69;;;1.34;84.53
24336;BME280;33098;52.400;16.880;2023-02-16T06:06:25;101459.11;;;1.33;84.39
24336;BME280;33098;52.400;16.880;2023-02-16T06:08:52;101457.66;;;1.34;84.46
24336;BME280;33098;52.400;16.880;2023-02-16T06:11:20;101453.36;;;1.32;84.32
24336;BME280;33098;52.400;16.880;2023-02-16T06:14:17;101451.08;;;1.25;84.30
24336;BME280;33098;52.400;16.880;2023-02-16T06:16:48;101458.75;;;1.19;84.19
24336;BME280;33098;52.400;16.880;2023-02-16T06:19:18;101457.73;;;1.17;84.29
24336;BME280;33098;52.400;16.880;2023-02-16T06:21:46;101456.96;;;1.27;84.90
24336;BME280;33098;52.400;16.880;2023-02-16T06:24:15;101455.91;;;1.35;84.92
24336;BME280;33098;52.400;16.880;2023-02-16T06:26:44;101459.17;;;1.44;84.95
24336;BME280;33098;52.400;16.880;2023-02-16T06:29:17;101458.48;;;1.52;85.12
24336;BME280;33098;52.400;16.880;2023-02-16T06:31:44;101464.61;;;1.52;84.78
24336;BME280;33098;52.400;16.880;2023-02-16T06:34:11;101464.44;;;1.52;84.82
24336;BME280;33098;52.400;16.880;2023-02-16T06:36:38;101461.35;;;1.56;84.70
24336;BME280;33098;52.400;16.880;2023-02-16T06:39:05;101462.93;;;1.56;84.59
24336;BME280;33098;52.400;16.880;2023-02-16T06:41:35;101466.86;;;1.60;84.75
24336;BME280;33098;52.400;16.880;2023-02-16T06:44:08;101466.82;;;1.62;84.64
24336;BME280;33098;52.400;16.880;2023-02-16T06:46:35;101467.59;;;1.59;84.57
24336;BME280;33098;52.400;16.880;2023-02-16T06:49:05;101459.75;;;1.50;84.40
24336;BME280;33098;52.400;16.880;2023-02-16T06:51:32;101450.33;;;1.48;84.39
24336;BME280;33098;52.400;16.880;2023-02-16T06:54:03;101449.17;;;1.53;84.65
24336;BME280;33098;52.400;16.880;2023-02-16T06:56:33;101445.11;;;1.55;84.67
24336;BME280;33098;52.400;16.880;2023-02-16T06:59:06;101447.71;;;1.56;84.86
24336;BME280;33098;52.400;16.880;2023-02-16T07:01:36;101447.48;;;1.58;84.76
24336;BME280;33098;52.400;16.880;2023-02-16T07:04:04;101446.30;;;1.56;84.85
24336;BME280;33098;52.400;16.880;2023-02-16T07:06:34;101440.20;;;1.55;84.86
24336;BME280;33098;52.400;16.880;2023-02-16T07:09:03;101440.23;;;1.61;85.17
24336;BME280;33098;52.400;16.880;2023-02-16T07:11:32;101436.46;;;1.58;85.01
24336;BME280;33098;52.400;16.880;2023-02-16T07:13:59;101433.65;;;1.58;85.18
24336;BME280;33098;52.400;16.880;2023-02-16T07:16:27;101435.45;;;1.64;85.38
24336;BME280;33098;52.400;16.880;2023-02-16T07:18:54;101428.43;;;1.71;85.49
24336;BME280;33098;52.400;16.880;2023-02-16T07:21:22;101421.31;;;1.75;85.50
24336;BME280;33098;52.400;16.880;2023-02-16T07:23:49;101427.69;;;1.86;85.63
24336;BME280;33098;52.400;16.880;2023-02-16T07:26:21;101428.04;;;1.93;85.64
24336;BME280;33098;52.400;16.880;2023-02-16T07:28:54;101428.20;;;1.99;85.57
24336;BME280;33098;52.400;16.880;2023-02-16T07:31:21;101424.46;;;2.01;85.56
24336;BME280;33098;52.400;16.880;2023-02-16T07:33:52;101419.81;;;2.05;85.53
24336;BME280;33098;52.400;16.880;2023-02-16T07:36:20;101425.81;;;2.04;85.43
24336;BME280;33098;52.400;16.880;2023-02-16T07:38:47;101429.13;;;2.10;85.43
24336;BME280;33098;52.400;16.880;2023-02-16T07:41:15;101432.89;;;2.21;85.69
24336;BME280;33098;52.400;16.880;2023-02-16T07:43:42;101428.91;;;2.31;85.67
24336;BME280;33098;52.400;16.880;2023-02-16T07:46:09;101426.54;;;2.34;85.43
24336;BME280;33098;52.400;16.880;2023-02-16T07:48:36;101427.66;;;2.38;85.44
24336;BME280;33098;52.400;16.880;2023-02-16T07:51:05;101430.56;;;2.40;85.30
24336;BME280;33098;52.400;16.880;2023-02-16T07:53:39;101430.33;;;2.36;85.14
24336;BME280;33098;52.400;16.880;2023-02-16T07:56:18;101428.17;;;2.32;85.08
24336;BME280;33098;52.400;16.880;2023-02-16T07:58:45;101428.05;;;2.37;85.27
24336;BME280;33098;52.400;16.880;2023-02-16T08:01:13;101430.20;;;2.47;85.37
24336;BME280;33098;52.400;16.880;2023-02-16T08:03:40;101429.30;;;2.54;85.44
24336;BME280;33098;52.400;16.880;2023-02-16T08:06:08;101424.55;;;2.60;85.48
24336;BME280;33098;52.400;16.880;2023-02-16T08:08:40;101422.36;;;2.58;85.25
24336;BME280;33098;52.400;16.880;2023-02-16T08:11:21;101415.11;;;2.48;84.98
24336;BME280;33098;52.400;16.880;2023-02-16T08:13:49;101424.70;;;2.43;85.41
24336;BME280;33098;52.400;16.880;2023-02-16T08:16:24;101430.85;;;2.43;85.43
24336;BME280;33098;52.400;16.880;2023-02-16T08:18:55;101434.46;;;2.39;85.76
24336;BME280;33098;52.400;16.880;2023-02-16T08:21:26;101429.92;;;2.32;86.13
24336;BME280;33098;52.400;16.880;2023-02-16T08:24:05;101431.98;;;2.34;86.14
24336;BME280;33098;52.400;16.880;2023-02-16T08:26:36;101435.16;;;2.33;86.46
24336;BME280;33098;52.400;16.880;2023-02-16T08:29:08;101435.71;;;2.38;86.43
24336;BME280;33098;52.400;16.880;2023-02-16T08:31:44;101440.91;;;2.46;86.93
24336;BME280;33098;52.400;16.880;2023-02-16T08:34:17;101440.11;;;2.62;87.06
24336;BME280;33098;52.400;16.880;2023-02-16T08:36:52;101440.15;;;2.78;87.19
24336;BME280;33098;52.400;16.880;2023-02-16T08:39:25;101440.65;;;2.79;86.63
24336;BME280;33098;52.400;16.880;2023-02-16T08:41:53;101443.98;;;2.67;86.60
24336;BME280;33098;52.400;16.880;2023-02-16T08:44:22;101443.98;;;2.61;86.73
24336;BME280;33098;52.400;16.880;2023-02-16T08:46:50;101440.65;;;2.62;87.02
24336;BME280;33098;52.400;16.880;2023-02-16T08:49:21;101440.23;;;2.64;87.06
24336;BME280;33098;52.400;16.880;2023-02-16T08:51:56;101437.04;;;2.77;87.32
24336;BME280;33098;52.400;16.880;2023-02-16T08:54:27;101442.05;;;2.91;87.25
24336;BME280;33098;52.400;16.880;2023-02-16T08:56:56;101446.38;;;2.93;87.08
24336;BME280;33098;52.400;16.880;2023-02-16T08:59:27;101445.77;;;2.96;87.18
24336;BME280;33098;52.400;16.880;2023-02-16T09:01:57;101443.98;;;3.03;87.21
24336;BME280;33098;52.400;16.880;2023-02-16T09:04:31;101443.09;;;3.03;87.23
24336;BME280;33098;52.400;16.880;2023-02-16T09:07:02;101438.70;;;3.08;87.21
24336;BME280;33098;52.400;16.880;2023-02-16T09:09:29;101441.10;;;3.16;87.33
24336;BME280;33098;52.400;16.880;2023-02-16T09:11:57;101451.55;;;3.30;87.28
24336;BME280;33098;52.400;16.880;2023-02-16T09:14:24;101448.23;;;3.35;87.16
24336;BME280;33098;52.400;16.880;2023-02-16T09:16:52;101454.39;;;3.39;86.97
24336;BME280;33098;52.400;16.880;2023-02-16T09:19:20;101460.28;;;3.36;86.77
24336;BME280;33098;52.400;16.880;2023-02-16T09:21:56;101460.20;;;3.39;86.82
24336;BME280;33098;52.400;16.880;2023-02-16T09:24:23;101461.91;;;3.45;86.99
24336;BME280;33098;52.400;16.880;2023-02-16T09:26:53;101463.90;;;3.50;86.88
24336;BME280;33098;52.400;16.880;2023-02-16T09:29:20;101459.66;;;3.66;86.97
24336;BME280;33098;52.400;16.880;2023-02-16T09:31:50;101466.25;;;3.79;86.88
24336;BME280;33098;52.400;16.880;2023-02-16T09:34:21;101459.80;;;3.88;86.64
24336;BME280;33098;52.400;16.880;2023-02-16T09:36:54;101461.14;;;4.01;86.55
24336;BME280;33098;52.400;16.880;2023-02-16T09:39:24;101463.70;;;4.12;86.36
24336;BME280;33098;52.400;16.880;2023-02-16T09:45:10;101455.55;;;4.15;85.51
24336;BME280;33098;52.400;16.880;2023-02-16T09:47:46;101453.09;;;4.29;86.03
24336;BME280;33098;52.400;16.880;2023-02-16T09:50:18;101451.96;;;4.41;85.79
24336;BME280;33098;52.400;16.880;2023-02-16T09:53:10;101457.80;;;4.54;85.94
24336;BME280;33098;52.400;16.880;2023-02-16T09:56:20;101451.25;;;4.65;85.48
24336;BME280;33098;52.400;16.880;2023-02-16T09:58:54;101450.02;;;4.79;85.33
24336;BME280;33098;52.400;16.880;2023-02-16T10:01:26;101445.00;;;4.86;85.07
24336;BME280;33098;52.400;16.880;2023-02-16T10:10:02;101436.40;;;5.21;84.55
24336;BME280;33098;52.400;16.880;2023-02-16T10:12:37;101428.16;;;5.25;84.11
24336;BME280;33098;52.400;16.880;2023-02-16T10:15:21;101428.73;;;5.28;83.89
24336;BME280;33098;52.400;16.880;2023-02-16T10:18:09;101429.73;;;5.34;83.31
24336;BME280;33098;52.400;16.880;2023-02-16T10:20:45;101435.70;;;5.25;82.46
24336;BME280;33098;52.400;16.880;2023-02-16T10:23:28;101434.23;;;5.14;81.62
24336;BME280;33098;52.400;16.880;2023-02-16T10:26:21;101435.08;;;5.06;81.48
24336;BME280;33098;52.400;16.880;2023-02-16T10:28:57;101435.65;;;5.05;81.67
24336;BME280;33098;52.400;16.880;2023-02-16T10:31:42;101435.38;;;5.07;81.99
24336;BME280;33098;52.400;16.880;2023-02-16T10:37:10;101429.80;;;5.32;82.88
24336;BME280;33098;52.400;16.880;2023-02-16T10:40:19;101427.30;;;5.50;82.97
24336;BME280;33098;52.400;16.880;2023-02-16T10:43:03;101424.58;;;5.65;82.77
24336;BME280;33098;52.400;16.880;2023-02-16T10:45:55;101418.55;;;5.74;82.66
24336;BME280;33098;52.400;16.880;2023-02-16T10:48:30;101415.66;;;5.84;82.25
24336;BME280;33098;52.400;16.880;2023-02-16T10:51:05;101416.64;;;5.86;81.86
24336;BME280;33098;52.400;16.880;2023-02-16T10:53:39;101415.83;;;5.89;81.71
24336;BME280;33098;52.400;16.880;2023-02-16T10:59:10;101411.39;;;6.02;81.21
24336;BME280;33098;52.400;16.880;2023-02-16T11:01:43;101403.23;;;6.07;81.41
24336;BME280;33098;52.400;16.880;2023-02-16T11:04:39;101404.13;;;6.15;81.22
24336;BME280;33098;52.400;16.880;2023-02-16T11:07:19;101403.60;;;6.27;81.20
24336;BME280;33098;52.400;16.880;2023-02-16T11:09:51;101406.23;;;6.35;80.72
24336;BME280;33098;52.400;16.880;2023-02-16T11:12:28;101400.23;;;6.43;80.86
24336;BME280;33098;52.400;16.880;2023-02-16T11:15:05;101404.33;;;6.57;80.90
24336;BME280;33098;52.400;16.880;2023-02-16T11:17:59;101397.86;;;6.75;81.18
24336;BME280;33098;52.400;16.880;2023-02-16T11:23:41;101387.02;;;7.02;80.80
24336;BME280;33098;52.400;16.880;2023-02-16T11:28:46;101380.41;;;7.12;78.86
24336;BME280;33098;52.400;16.880;2023-02-16T11:34:04;101374.52;;;7.16;78.87
24336;BME280;33098;52.400;16.880;2023-02-16T11:39:12;101364.98;;;7.38;78.86
24336;BME280;33098;52.400;16.880;2023-02-16T11:42:17;101377.23;;;7.51;78.97
24336;BME280;33098;52.400;16.880;2023-02-16T11:44:53;101378.77;;;7.76;78.69
24336;BME280;33098;52.400;16.880;2023-02-16T11:47:30;101375.95;;;7.83;77.31
24336;BME280;33098;52.400;16.880;2023-02-16T11:50:18;101380.24;;;7.95;77.11
24336;BME280;33098;52.400;16.880;2023-02-16T11:53:15;101375.09;;;7.99;76.74
24336;BME280;33098;52.400;16.880;2023-02-16T11:55:49;101376.63;;;8.20;76.96
24336;BME280;33098;52.400;16.880;2023-02-16T11:58:25;101377.52;;;8.36;76.46
24336;BME280;33098;52.400;16.880;2023-02-16T12:03:48;101370.78;;;8.37;74.55
24336;BME280;33098;52.400;16.880;2023-02-16T12:09:44;101371.27;;;8.41;73.86
24336;BME280;33098;52.400;16.880;2023-02-16T12:12:19;101370.35;;;8.45;74.58
24336;BME280;33098;52.400;16.880;2023-02-16T12:15:05;101366.39;;;8.56;75.02
24336;BME280;33098;52.400;16.880;2023-02-16T12:23:58;101356.35;;;8.99;74.48
24336;BME280;33098;52.400;16.880;2023-02-16T12:26:49;101357.02;;;9.00;73.93
24336;BME280;33098;52.400;16.880;2023-02-16T12:29:41;101354.48;;;9.05;73.12
24336;BME280;33098;52.400;16.880;2023-02-16T12:38:16;101339.59;;;9.29;73.75
24336;BME280;33098;52.400;16.880;2023-02-16T12:46:37;101336.79;;;9.76;73.40
24336;BME280;33098;52.400;16.880;2023-02-16T12:51:45;101334.69;;;10.27;73.51
24336;BME280;33098;52.400;16.880;2023-02-16T12:57:00;101327.65;;;10.47;72.11
24336;BME280;33098;52.400;16.880;2023-02-16T12:59:50;101324.34;;;10.54;70.17
24336;BME280;33098;52.400;16.880;2023-02-16T13:02:31;101325.43;;;10.45;67.97
24336;BME280;33098;52.400;16.880;2023-02-16T13:05:10;101325.67;;;10.47;69.72
24336;BME280;33098;52.400;16.880;2023-02-16T13:07:50;101316.56;;;10.65;69.81
24336;BME280;33098;52.400;16.880;2023-02-16T13:13:26;101314.16;;;10.63;67.27
24336;BME280;33098;52.400;16.880;2023-02-16T13:16:18;101306.88;;;10.63;68.53
24336;BME280;33098;52.400;16.880;2023-02-16T13:18:50;101301.51;;;10.78;68.89
24336;BME280;33098;52.400;16.880;2023-02-16T13:27:25;101294.42;;;10.96;67.83
24336;BME280;33098;52.400;16.880;2023-02-16T13:30:08;101291.50;;;10.73;67.72
24336;BME280;33098;52.400;16.880;2023-02-16T13:42:17;101284.41;;;10.17;67.50
24336;BME280;33098;52.400;16.880;2023-02-16T13:44:54;101283.92;;;10.11;68.45
24336;BME280;33098;52.400;16.880;2023-02-16T13:47:37;101283.96;;;10.19;69.04
24336;BME280;33098;52.400;16.880;2023-02-16T13:52:51;101285.06;;;10.15;68.86
24336;BME280;33098;52.400;16.880;2023-02-16T13:55:35;101283.50;;;10.15;68.45
24336;BME280;33098;52.400;16.880;2023-02-16T14:00:40;101276.61;;;10.09;68.78
24336;BME280;33098;52.400;16.880;2023-02-16T14:03:34;101273.57;;;10.09;68.95
24336;BME280;33098;52.400;16.880;2023-02-16T14:12:03;101263.73;;;10.02;68.92
24336;BME280;33098;52.400;16.880;2023-02-16T14:17:26;101271.22;;;10.05;68.65
24336;BME280;33098;52.400;16.880;2023-02-16T14:20:00;101278.15;;;10.01;68.46
24336;BME280;33098;52.400;16.880;2023-02-16T14:27:55;101276.00;;;9.64;67.63
24336;BME280;33098;52.400;16.880;2023-02-16T14:30:25;101271.72;;;9.50;67.58
24336;BME280;33098;52.400;16.880;2023-02-16T14:32:58;101268.65;;;9.43;68.07
24336;BME280;33098;52.400;16.880;2023-02-16T14:35:33;101268.02;;;9.38;68.39
24336;BME280;33098;52.400;16.880;2023-02-16T14:38:15;101266.41;;;9.39;68.70
24336;BME280;33098;52.400;16.880;2023-02-16T14:40:57;101273.06;;;9.40;69.17
24336;BME280;33098;52.400;16.880;2023-02-16T14:43:29;101273.47;;;9.51;69.48
24336;BME280;33098;52.400;16.880;2023-02-16T15:00:56;101261.48;;;9.41;69.02
24336;BME280;33098;52.400;16.880;2023-02-16T15:03:39;101259.98;;;9.36;69.32
24336;BME280;33098;52.400;16.880;2023-02-16T15:06:28;101262.09;;;9.27;69.21
24336;BME280;33098;52.400;16.880;2023-02-16T15:09:01;101259.88;;;9.26;69.36
24336;BME280;33098;52.400;16.880;2023-02-16T15:11:39;101263.39;;;9.24;69.53
24336;BME280;33098;52.400;16.880;2023-02-16T15:14:27;101257.64;;;9.16;69.30
24336;BME280;33098;52.400;16.880;2023-02-16T15:16:56;101255.94;;;9.12;69.65
24336;BME280;33098;52.400;16.880;2023-02-16T15:19:27;101252.20;;;9.09;70.09
24336;BME280;33098;52.400;16.880;2023-02-16T15:22:18;101255.17;;;9.10;70.12
24336;BME280;33098;52.400;16.880;2023-02-16T15:24:56;101250.61;;;9.09;70.28
24336;BME280;33098;52.400;16.880;2023-02-16T15:27:23;101247.71;;;9.07;70.49
24336;BME280;33098;52.400;16.880;2023-02-16T15:30:05;101247.46;;;9.09;70.66
24336;BME280;33098;52.400;16.880;2023-02-16T15:32:36;101249.49;;;9.07;70.71
24336;BME280;33098;52.400;16.880;2023-02-16T15:35:12;101250.79;;;9.09;71.00
24336;BME280;33098;52.400;16.880;2023-02-16T15:37:40;101253.02;;;9.07;70.88
24336;BME280;33098;52.400;16.880;2023-02-16T15:40:24;101255.70;;;9.04;71.00